createdAt,value
2022-07-28T00:04:29.845Z,4.40
2022-07-28T00:09:32.671Z,5.10
2022-07-28T00:14:36.003Z,4.30
2022-07-28T00:19:38.890Z,4.80
2022-07-28T00:24:41.900Z,4.70
2022-07-28T00:29:50.187Z,4.20
2022-07-28T00:34:53.889Z,3.00
2022-07-28T00:39:57.412Z,3.90
2022-07-28T00:45:00.280Z,5.80
2022-07-28T00:50:04.627Z,5.60
2022-07-28T00:55:07.919Z,3.30
2022-07-28T01:00:11.569Z,5.50
2022-07-28T01:05:15.606Z,4.00
2022-07-28T01:10:42.008Z,6.10
2022-07-28T01:15:54.339Z,7.20
2022-07-28T01:21:01.863Z,6.80
2022-07-28T01:26:41.664Z,6.10
2022-07-28T01:32:01.402Z,5.70
2022-07-28T01:37:11.767Z,4.00
2022-07-28T01:42:17.870Z,5.70
2022-07-28T01:47:22.761Z,5.20
2022-07-28T01:52:27.318Z,3.90
2022-07-28T01:57:32.635Z,6.30
2022-07-28T02:02:38.087Z,4.60
2022-07-28T02:07:43.311Z,5.20
2022-07-28T02:12:50.034Z,6.20
2022-07-28T02:17:53.801Z,5.50
2022-07-28T02:22:57.947Z,5.00
2022-07-28T02:28:06.733Z,5.10
2022-07-28T02:33:23.300Z,4.20
2022-07-28T02:38:44.839Z,6.50
2022-07-28T02:43:50.797Z,6.50
2022-07-28T02:49:00.615Z,5.90
2022-07-28T02:54:04.882Z,6.40
2022-07-28T02:59:09.373Z,6.10
2022-07-28T03:04:15.085Z,6.50
2022-07-28T03:09:18.336Z,6.20
2022-07-28T03:14:21.149Z,6.80
2022-07-28T03:19:24.030Z,9.70
2022-07-28T03:24:31.586Z,13.40
2022-07-28T03:29:36.291Z,29.70
2022-07-28T03:34:39.463Z,25.30
2022-07-28T03:39:48.457Z,9.60
2022-07-28T03:44:51.571Z,8.70
2022-07-28T03:49:54.480Z,6.10
2022-07-28T03:54:57.424Z,8.00
2022-07-28T04:00:00.505Z,6.00
2022-07-28T04:05:03.921Z,7.30
2022-07-28T04:10:11.847Z,3.90
2022-07-28T04:15:15.548Z,4.80
2022-07-28T04:20:19.648Z,7.00
2022-07-28T04:25:25.195Z,6.80
2022-07-28T04:30:28.875Z,5.00
2022-07-28T04:35:31.810Z,5.40
2022-07-28T04:40:34.809Z,6.60
2022-07-28T04:45:37.615Z,4.40
2022-07-28T04:50:42.350Z,6.10
2022-07-28T04:55:45.182Z,6.60
2022-07-28T05:00:50.350Z,6.40
2022-07-28T05:05:54.398Z,5.20
2022-07-28T05:10:58.046Z,7.30
2022-07-28T05:16:01.294Z,9.80
2022-07-28T05:21:04.665Z,14.40
2022-07-28T05:26:07.608Z,8.20
2022-07-28T05:31:10.691Z,10.60
2022-07-28T05:36:13.437Z,10.40
2022-07-28T05:41:16.300Z,9.00
2022-07-28T05:46:19.226Z,14.20
2022-07-28T05:51:22.255Z,9.30
2022-07-28T05:56:25.078Z,7.60
2022-07-28T06:01:27.872Z,6.30
2022-07-28T06:06:30.711Z,5.00
2022-07-28T06:11:33.620Z,5.10
2022-07-28T06:16:36.570Z,5.80
2022-07-28T06:21:40.451Z,3.40
2022-07-28T06:26:45.194Z,3.90
2022-07-28T06:31:48.248Z,7.00
2022-07-28T06:36:51.234Z,7.70
2022-07-28T06:41:54.021Z,6.90
2022-07-28T06:46:58.438Z,7.70
2022-07-28T06:52:01.478Z,6.80
2022-07-28T06:57:04.578Z,5.70
2022-07-28T07:02:08.423Z,9.90
2022-07-28T07:07:14.926Z,6.30
2022-07-28T07:12:20.226Z,4.90
2022-07-28T07:17:23.021Z,7.10
2022-07-28T07:22:26.183Z,6.80
2022-07-28T07:27:28.995Z,10.20
2022-07-28T07:32:32.131Z,4.20
2022-07-28T07:37:35.018Z,4.70
2022-07-28T07:42:38.372Z,5.20
2022-07-28T07:47:41.598Z,5.70
2022-07-28T07:52:44.396Z,3.60
2022-07-28T07:57:47.324Z,3.90
2022-07-28T08:02:50.490Z,4.10
2022-07-28T08:07:53.565Z,5.50
2022-07-28T08:12:56.493Z,6.50
2022-07-28T08:18:00.401Z,5.80
2022-07-28T08:23:03.283Z,7.40
2022-07-28T08:28:06.279Z,5.60
2022-07-28T08:33:09.044Z,4.10
2022-07-28T08:38:12.900Z,5.20
2022-07-28T08:43:29.583Z,5.90
2022-07-28T08:48:37.785Z,5.20
2022-07-28T08:53:42.984Z,3.80
2022-07-28T08:58:45.944Z,4.90
2022-07-28T09:03:50.898Z,4.60
2022-07-28T09:13:56.403Z,4.20
2022-07-28T09:18:59.313Z,4.00
2022-07-28T09:24:02.226Z,2.90
2022-07-28T09:29:07.795Z,3.60
2022-07-28T09:34:10.644Z,6.60
2022-07-28T09:39:35.004Z,5.80
2022-07-28T09:44:38.009Z,4.30
2022-07-28T09:49:43.164Z,4.70
2022-07-28T09:55:09.668Z,3.70
2022-07-28T10:00:28.069Z,3.00
2022-07-28T10:05:41.262Z,6.40
2022-07-28T10:10:58.961Z,3.30
2022-07-28T10:16:12.846Z,4.00
2022-07-28T10:21:18.759Z,3.30
2022-07-28T10:26:28.961Z,3.20
2022-07-28T10:31:51.814Z,2.90
2022-07-28T10:37:02.237Z,5.10
2022-07-28T10:42:11.817Z,2.60
2022-07-28T10:47:18.443Z,2.70
2022-07-28T10:52:46.830Z,2.60
2022-07-28T10:58:01.780Z,3.00
2022-07-28T11:03:13.472Z,2.00
2022-07-28T11:08:17.139Z,2.80
2022-07-28T11:13:41.159Z,2.90
2022-07-28T11:19:04.766Z,3.50
2022-07-28T11:24:11.560Z,3.80
2022-07-28T11:29:17.017Z,1.90
2022-07-28T11:34:24.948Z,3.50
2022-07-28T11:39:30.720Z,3.10
2022-07-28T11:44:46.027Z,4.10
2022-07-28T11:55:18.697Z,4.80
2022-07-28T12:00:23.057Z,4.20
2022-07-28T12:05:27.205Z,4.80
2022-07-28T12:10:53.793Z,3.40
2022-07-28T12:15:57.662Z,4.50
2022-07-28T12:21:04.917Z,3.00
2022-07-28T12:26:10.195Z,4.40
2022-07-28T12:31:15.182Z,2.90
2022-07-28T12:36:19.613Z,3.80
2022-07-28T12:41:22.538Z,4.80
2022-07-28T12:46:28.426Z,3.30
2022-07-28T12:51:39.300Z,3.90
2022-07-28T12:56:46.241Z,3.40
2022-07-28T13:01:58.482Z,2.90
2022-07-28T13:07:01.471Z,2.50
2022-07-28T13:12:17.996Z,2.80
2022-07-28T13:17:23.097Z,3.10
2022-07-28T13:22:33.383Z,4.00
2022-07-28T13:27:36.252Z,5.40
2022-07-28T13:32:39.138Z,5.00
2022-07-28T13:37:42.152Z,8.10
2022-07-28T13:42:52.860Z,4.50
2022-07-28T13:47:57.024Z,3.10
2022-07-28T13:52:59.946Z,6.10
2022-07-28T13:58:08.519Z,4.50
2022-07-28T14:03:12.959Z,4.20
2022-07-28T14:08:19.804Z,3.30
2022-07-28T14:18:31.311Z,5.30
2022-07-28T14:23:34.156Z,3.70
2022-07-28T14:28:37.089Z,3.70
2022-07-28T14:33:45.596Z,2.10
2022-07-28T14:38:53.619Z,3.60
2022-07-28T14:43:58.188Z,3.60
2022-07-28T14:49:01.017Z,2.80
2022-07-28T14:54:04.466Z,4.60
2022-07-28T14:59:07.377Z,2.90
2022-07-28T15:04:12.632Z,2.50
2022-07-28T15:14:21.180Z,1.50
2022-07-28T15:24:30.608Z,4.00
2022-07-28T15:29:35.364Z,1.60
2022-07-28T15:34:38.627Z,1.70
2022-07-28T15:39:45.001Z,1.60
2022-07-28T15:44:49.436Z,3.40
2022-07-28T15:49:52.315Z,3.60
2022-07-28T15:54:56.750Z,1.50
2022-07-28T15:59:59.592Z,1.70
2022-07-28T16:05:02.570Z,1.50
2022-07-28T16:10:05.742Z,2.70
2022-07-28T16:15:09.192Z,5.40
2022-07-28T16:20:12.276Z,2.50
2022-07-28T16:25:20.448Z,2.90
2022-07-28T16:30:23.512Z,2.10
2022-07-28T16:35:26.419Z,2.90
2022-07-28T16:40:32.960Z,3.80
2022-07-28T16:45:36.015Z,3.10
2022-07-28T16:50:38.996Z,3.40
2022-07-28T16:55:43.399Z,2.00
2022-07-28T17:00:46.377Z,1.80
2022-07-28T17:05:49.400Z,3.90
2022-07-28T17:10:52.667Z,3.20
2022-07-28T17:15:56.585Z,3.30
2022-07-28T17:20:59.457Z,3.30
2022-07-28T17:27:11.901Z,3.10
2022-07-28T17:31:28.896Z,3.60
2022-07-28T17:36:39.044Z,2.80
2022-07-28T17:41:45.053Z,4.10
2022-07-28T17:46:49.312Z,5.90
2022-07-28T17:51:52.193Z,8.60
2022-07-28T17:56:56.775Z,3.80
2022-07-28T18:01:59.887Z,4.60
2022-07-28T18:07:02.827Z,6.40
2022-07-28T18:12:05.910Z,5.60
2022-07-28T18:17:09.001Z,3.50
2022-07-28T18:22:11.818Z,3.50
2022-07-28T18:27:14.687Z,5.30
2022-07-28T18:32:18.266Z,4.60
2022-07-28T18:37:21.308Z,5.60
2022-07-28T18:42:24.138Z,3.40
2022-07-28T18:47:29.119Z,4.00
2022-07-28T18:52:33.468Z,4.10
2022-07-28T18:57:36.352Z,3.70
2022-07-28T19:02:40.109Z,3.60
2022-07-28T19:07:43.115Z,5.10
2022-07-28T19:12:46.642Z,4.70
2022-07-28T19:18:10.640Z,8.80
2022-07-28T19:23:12.448Z,4.60
2022-07-28T19:28:16.309Z,7.80
2022-07-28T19:33:21.518Z,5.80
2022-07-28T19:38:24.421Z,5.30
2022-07-28T19:43:27.353Z,4.00
2022-07-28T19:48:30.344Z,6.20
2022-07-28T19:53:34.506Z,6.30
2022-07-28T19:58:39.854Z,5.40
2022-07-28T20:04:00.651Z,4.90
2022-07-28T20:09:06.822Z,5.90
2022-07-28T20:14:09.819Z,4.10
2022-07-28T20:19:12.809Z,4.30
2022-07-28T20:24:16.765Z,4.80
2022-07-28T20:29:20.021Z,5.00
2022-07-28T20:34:23.413Z,5.10
2022-07-28T20:39:44.389Z,5.00
2022-07-28T20:44:48.167Z,4.00
2022-07-28T20:49:51.347Z,4.40
2022-07-28T20:54:55.424Z,6.50
2022-07-28T20:59:58.270Z,5.20
2022-07-28T21:05:01.198Z,2.90
2022-07-28T21:10:05.734Z,5.50
2022-07-28T21:15:09.758Z,4.50
2022-07-28T21:20:13.023Z,3.40
2022-07-28T21:25:15.965Z,3.00
2022-07-28T21:30:18.964Z,4.60
2022-07-28T21:35:21.799Z,3.60
2022-07-28T21:40:24.982Z,4.10
2022-07-28T21:45:27.837Z,5.70
2022-07-28T21:50:30.649Z,4.80
2022-07-28T21:55:33.732Z,4.10
2022-07-28T22:00:36.547Z,5.00
2022-07-28T22:05:39.521Z,4.80
2022-07-28T22:10:42.491Z,5.20
2022-07-28T22:15:46.364Z,5.70
2022-07-28T22:20:49.266Z,3.90
2022-07-28T22:25:52.210Z,5.40
2022-07-28T22:30:55.538Z,5.40
2022-07-28T22:35:58.571Z,4.80
2022-07-28T22:41:01.578Z,6.80
2022-07-28T22:46:04.720Z,5.80
2022-07-28T22:51:12.127Z,6.60
2022-07-28T22:57:11.556Z,6.30
2022-07-28T23:02:14.897Z,9.60
2022-07-28T23:07:17.751Z,5.00
2022-07-28T23:12:21.249Z,5.20
2022-07-28T23:17:24.170Z,5.40
2022-07-28T23:22:30.656Z,6.00
2022-07-28T23:27:34.050Z,5.10
2022-07-28T23:32:37.014Z,8.10
2022-07-28T23:37:39.889Z,4.90
2022-07-28T23:42:42.763Z,6.70
2022-07-28T23:47:45.727Z,6.00
2022-07-28T23:52:48.630Z,4.40
2022-07-28T23:57:51.583Z,5.80
